createdAt,value
2022-12-25T00:00:25.181Z,100.00
2022-12-25T00:01:57.979Z,100.00
2022-12-25T00:03:31.565Z,100.00
2022-12-25T00:05:04.429Z,100.00
2022-12-25T00:06:37.057Z,100.00
2022-12-25T00:08:10.285Z,100.00
2022-12-25T00:09:42.983Z,100.00
2022-12-25T00:11:16.864Z,100.00
2022-12-25T00:12:49.731Z,100.00
2022-12-25T00:14:22.480Z,100.00
2022-12-25T00:15:55.380Z,100.00
2022-12-25T00:17:28.093Z,100.00
2022-12-25T00:19:01.522Z,100.00
2022-12-25T00:20:34.424Z,100.00
2022-12-25T00:22:07.149Z,100.00
2022-12-25T00:23:39.973Z,100.00
2022-12-25T00:25:12.739Z,100.00
2022-12-25T00:26:45.571Z,100.00
2022-12-25T00:28:18.421Z,100.00
2022-12-25T00:29:50.965Z,100.00
2022-12-25T00:31:24.941Z,100.00
2022-12-25T00:32:57.708Z,100.00
2022-12-25T00:34:30.376Z,100.00
2022-12-25T00:36:03.940Z,100.00
2022-12-25T00:37:36.610Z,100.00
2022-12-25T00:39:09.752Z,100.00
2022-12-25T00:40:44.359Z,100.00
2022-12-25T00:42:19.836Z,100.00
2022-12-25T00:43:52.658Z,100.00
2022-12-25T00:45:25.623Z,100.00
2022-12-25T00:46:58.502Z,100.00
2022-12-25T00:48:31.641Z,100.00
2022-12-25T00:50:04.597Z,100.00
2022-12-25T00:51:37.406Z,100.00
2022-12-25T00:53:10.054Z,100.00
2022-12-25T00:54:42.664Z,100.00
2022-12-25T00:56:15.589Z,100.00
2022-12-25T00:57:48.443Z,100.00
2022-12-25T00:59:21.085Z,100.00
2022-12-25T01:00:53.745Z,100.00
2022-12-25T01:02:26.601Z,100.00
2022-12-25T01:03:59.655Z,100.00
2022-12-25T01:05:32.259Z,100.00
2022-12-25T01:07:04.897Z,100.00
2022-12-25T01:08:38.725Z,100.00
2022-12-25T01:10:24.064Z,100.00
2022-12-25T01:11:56.766Z,100.00
2022-12-25T01:13:29.762Z,100.00
2022-12-25T01:15:02.796Z,100.00
2022-12-25T01:16:35.713Z,100.00
2022-12-25T01:18:10.700Z,100.00
2022-12-25T01:19:45.419Z,100.00
2022-12-25T01:21:20.386Z,100.00
2022-12-25T01:22:53.594Z,100.00
2022-12-25T01:24:26.539Z,100.00
2022-12-25T01:26:04.219Z,100.00
2022-12-25T01:27:37.142Z,100.00
2022-12-25T01:29:09.892Z,100.00
2022-12-25T01:30:48.538Z,100.00
2022-12-25T01:32:21.416Z,100.00
2022-12-25T01:33:54.051Z,100.00
2022-12-25T01:35:26.795Z,100.00
2022-12-25T01:36:59.329Z,100.00
2022-12-25T01:38:32.962Z,100.00
2022-12-25T01:40:06.080Z,100.00
2022-12-25T01:41:38.877Z,100.00
2022-12-25T01:43:25.951Z,100.00
2022-12-25T01:44:58.743Z,100.00
2022-12-25T01:46:31.554Z,100.00
2022-12-25T01:48:07.375Z,100.00
2022-12-25T01:49:41.017Z,100.00
2022-12-25T01:51:24.129Z,100.00
2022-12-25T01:52:58.336Z,100.00
2022-12-25T01:54:33.815Z,100.00
2022-12-25T01:56:07.634Z,100.00
2022-12-25T01:57:41.339Z,100.00
2022-12-25T01:59:16.475Z,100.00
2022-12-25T02:00:49.221Z,100.00
2022-12-25T02:02:22.773Z,100.00
2022-12-25T02:03:59.255Z,100.00
2022-12-25T02:05:33.786Z,100.00
2022-12-25T02:07:16.684Z,100.00
2022-12-25T02:08:50.413Z,100.00
2022-12-25T02:10:23.287Z,100.00
2022-12-25T02:11:59.042Z,100.00
2022-12-25T02:13:33.182Z,100.00
2022-12-25T02:15:10.456Z,100.00
2022-12-25T02:16:56.910Z,100.00
2022-12-25T02:18:42.809Z,100.00
2022-12-25T02:20:40.273Z,100.00
2022-12-25T02:22:28.577Z,100.00
2022-12-25T02:24:07.636Z,100.00
2022-12-25T02:25:53.373Z,100.00
2022-12-25T02:27:35.151Z,100.00
2022-12-25T02:29:11.070Z,100.00
2022-12-25T02:30:46.686Z,100.00
2022-12-25T02:32:25.395Z,100.00
2022-12-25T02:34:13.623Z,100.00
2022-12-25T02:35:48.200Z,100.00
2022-12-25T02:37:39.556Z,100.00
2022-12-25T02:39:39.164Z,100.00
2022-12-25T02:41:14.835Z,100.00
2022-12-25T02:43:20.016Z,100.00
2022-12-25T02:45:11.927Z,100.00
2022-12-25T02:47:02.556Z,100.00
2022-12-25T02:48:55.872Z,100.00
2022-12-25T02:50:47.721Z,100.00
2022-12-25T02:52:39.750Z,100.00
2022-12-25T02:54:36.474Z,100.00
2022-12-25T02:56:28.465Z,100.00
2022-12-25T02:58:23.238Z,100.00
2022-12-25T03:00:17.960Z,100.00
2022-12-25T03:02:09.484Z,100.00
2022-12-25T03:04:01.935Z,100.00
2022-12-25T03:05:56.191Z,100.00
2022-12-25T03:07:30.665Z,100.00
2022-12-25T03:09:23.249Z,100.00
2022-12-25T03:11:18.456Z,100.00
2022-12-25T03:12:54.233Z,100.00
2022-12-25T03:14:46.217Z,100.00
2022-12-25T03:16:38.621Z,100.00
2022-12-25T03:18:14.723Z,100.00
2022-12-25T03:20:05.655Z,100.00
2022-12-25T03:21:56.797Z,100.00
2022-12-25T03:23:50.763Z,100.00
2022-12-25T03:25:44.879Z,100.00
2022-12-25T03:27:17.499Z,100.00
2022-12-25T03:28:50.191Z,100.00
2022-12-25T03:30:43.423Z,100.00
2022-12-25T03:32:18.939Z,100.00
2022-12-25T03:34:28.270Z,100.00
2022-12-25T03:36:10.525Z,100.00
2022-12-25T03:37:45.728Z,100.00
2022-12-25T03:39:44.758Z,100.00
2022-12-25T03:41:36.083Z,100.00
2022-12-25T03:43:34.563Z,100.00
2022-12-25T03:45:32.884Z,100.00
2022-12-25T03:47:44.667Z,100.00
2022-12-25T03:49:40.587Z,100.00
2022-12-25T03:51:32.941Z,100.00
2022-12-25T03:53:28.133Z,100.00
2022-12-25T03:55:22.078Z,100.00
2022-12-25T03:57:14.176Z,100.00
2022-12-25T03:59:09.594Z,100.00
2022-12-25T04:01:00.727Z,100.00
2022-12-25T04:03:12.137Z,100.00
2022-12-25T04:05:03.625Z,100.00
2022-12-25T04:06:54.888Z,100.00
2022-12-25T04:08:46.138Z,100.00
2022-12-25T04:10:37.193Z,100.00
2022-12-25T04:12:28.446Z,100.00
2022-12-25T04:14:19.735Z,100.00
2022-12-25T04:16:11.519Z,100.00
2022-12-25T04:18:02.621Z,100.00
2022-12-25T04:19:53.871Z,100.00
2022-12-25T04:21:45.248Z,100.00
2022-12-25T04:23:36.473Z,100.00
2022-12-25T04:25:27.583Z,100.00
2022-12-25T04:27:18.799Z,100.00
2022-12-25T04:29:10.108Z,100.00
2022-12-25T04:31:01.323Z,100.00
2022-12-25T04:32:52.534Z,100.00
2022-12-25T04:34:43.859Z,100.00
2022-12-25T04:36:17.155Z,100.00
2022-12-25T04:37:49.966Z,100.00
2022-12-25T04:39:22.899Z,100.00
2022-12-25T04:40:55.624Z,100.00
2022-12-25T04:42:28.497Z,100.00
2022-12-25T04:44:01.378Z,100.00
2022-12-25T04:45:34.201Z,100.00
2022-12-25T04:47:11.099Z,100.00
2022-12-25T04:48:44.292Z,100.00
2022-12-25T04:50:17.102Z,100.00
2022-12-25T04:51:49.824Z,100.00
2022-12-25T04:53:22.390Z,100.00
2022-12-25T04:54:55.115Z,100.00
2022-12-25T04:56:27.836Z,100.00
2022-12-25T04:58:00.547Z,100.00
2022-12-25T04:59:33.148Z,100.00
2022-12-25T05:01:06.519Z,100.00
2022-12-25T05:02:39.262Z,100.00
2022-12-25T05:04:12.099Z,100.00
2022-12-25T05:05:44.795Z,100.00
2022-12-25T05:07:18.111Z,100.00
2022-12-25T05:08:50.866Z,100.00
2022-12-25T05:10:24.051Z,100.00
2022-12-25T05:11:56.842Z,100.00
2022-12-25T05:13:29.729Z,100.00
2022-12-25T05:15:02.384Z,100.00
2022-12-25T05:16:35.221Z,100.00
2022-12-25T05:18:07.982Z,100.00
2022-12-25T05:19:40.776Z,100.00
2022-12-25T05:21:13.751Z,100.00
2022-12-25T05:22:46.594Z,100.00
2022-12-25T05:24:19.621Z,97.89
2022-12-25T05:25:52.365Z,97.12
2022-12-25T05:27:25.131Z,94.96
2022-12-25T05:28:58.122Z,93.29
2022-12-25T05:30:30.894Z,90.53
2022-12-25T05:32:03.738Z,89.86
2022-12-25T05:33:36.452Z,87.79
2022-12-25T05:35:09.525Z,87.10
2022-12-25T05:36:42.197Z,85.75
2022-12-25T05:38:14.944Z,84.64
2022-12-25T05:39:47.635Z,83.37
2022-12-25T05:41:20.517Z,84.14
2022-12-25T05:42:53.079Z,82.03
2022-12-25T05:44:25.931Z,79.84
2022-12-25T05:45:58.917Z,77.00
2022-12-25T05:47:31.621Z,76.55
2022-12-25T05:49:05.921Z,76.82
2022-12-25T05:50:39.033Z,78.43
2022-12-25T05:52:12.576Z,78.95
2022-12-25T05:53:45.369Z,77.23
2022-12-25T05:55:18.076Z,76.31
2022-12-25T05:56:50.836Z,77.54
2022-12-25T05:58:23.435Z,77.34
2022-12-25T05:59:59.177Z,78.95
2022-12-25T06:01:32.304Z,81.10
2022-12-25T06:03:05.303Z,83.62
2022-12-25T06:04:37.919Z,84.02
2022-12-25T06:06:11.480Z,83.05
2022-12-25T06:07:44.145Z,82.21
2022-12-25T06:09:16.963Z,82.34
2022-12-25T06:10:49.708Z,82.21
2022-12-25T06:12:22.623Z,81.41
2022-12-25T06:13:56.049Z,79.64
2022-12-25T06:15:28.954Z,79.72
2022-12-25T06:17:01.803Z,77.38
2022-12-25T06:18:38.226Z,78.94
2022-12-25T06:20:10.971Z,78.50
2022-12-25T06:21:43.795Z,77.94
2022-12-25T06:23:16.721Z,75.19
2022-12-25T06:24:49.565Z,76.39
2022-12-25T06:26:22.250Z,75.62
2022-12-25T06:27:55.060Z,75.31
2022-12-25T06:29:27.831Z,75.48
2022-12-25T06:31:05.872Z,76.32
2022-12-25T06:32:38.506Z,77.83
2022-12-25T06:34:11.479Z,78.72
2022-12-25T06:35:44.178Z,80.79
2022-12-25T06:37:17.109Z,80.17
2022-12-25T06:38:49.738Z,82.53
2022-12-25T06:40:22.427Z,84.00
2022-12-25T06:41:55.221Z,84.95
2022-12-25T06:43:28.122Z,83.68
2022-12-25T06:45:00.949Z,85.09
2022-12-25T06:46:35.692Z,84.85
2022-12-25T06:48:08.360Z,84.19
2022-12-25T06:49:41.250Z,84.26
2022-12-25T06:51:14.483Z,84.43
2022-12-25T06:52:47.286Z,84.89
2022-12-25T06:54:19.927Z,84.73
2022-12-25T06:55:52.992Z,83.82
2022-12-25T06:57:25.858Z,84.52
2022-12-25T06:59:00.050Z,86.24
2022-12-25T07:00:32.732Z,87.35
2022-12-25T07:02:06.175Z,86.59
2022-12-25T07:03:39.042Z,88.07
2022-12-25T07:05:12.029Z,88.23
2022-12-25T07:06:44.606Z,87.35
2022-12-25T07:08:17.339Z,87.66
2022-12-25T07:09:50.007Z,88.16
2022-12-25T07:11:22.931Z,87.28
2022-12-25T07:12:55.644Z,86.08
2022-12-25T07:14:28.382Z,86.85
2022-12-25T07:16:02.691Z,88.55
2022-12-25T07:17:36.260Z,85.35
2022-12-25T07:19:09.652Z,86.95
2022-12-25T07:20:42.708Z,90.45
2022-12-25T07:22:16.441Z,88.34
2022-12-25T07:23:50.405Z,90.63
2022-12-25T07:25:23.395Z,90.61
2022-12-25T07:26:56.638Z,90.46
2022-12-25T07:28:30.215Z,91.73
2022-12-25T07:30:03.026Z,90.18
2022-12-25T07:31:36.052Z,89.92
2022-12-25T07:33:08.925Z,90.23
2022-12-25T07:34:41.683Z,89.37
2022-12-25T07:36:15.038Z,90.34
2022-12-25T07:37:47.890Z,91.03
2022-12-25T07:39:20.947Z,92.32
2022-12-25T07:40:54.145Z,94.35
2022-12-25T07:42:27.369Z,94.64
2022-12-25T07:44:00.380Z,93.34
2022-12-25T07:45:33.510Z,92.20
2022-12-25T07:47:06.817Z,95.04
2022-12-25T07:48:40.060Z,94.84
2022-12-25T07:50:12.713Z,93.30
2022-12-25T07:51:46.002Z,93.08
2022-12-25T07:53:18.770Z,93.12
2022-12-25T07:54:51.731Z,92.02
2022-12-25T07:56:24.549Z,92.04
2022-12-25T07:57:57.385Z,91.85
2022-12-25T07:59:29.975Z,90.38
2022-12-25T08:01:04.803Z,90.18
2022-12-25T08:02:38.102Z,93.21
2022-12-25T08:04:12.278Z,92.79
2022-12-25T08:05:45.439Z,92.84
2022-12-25T08:07:18.145Z,92.74
2022-12-25T08:08:50.847Z,92.78
2022-12-25T08:10:23.870Z,92.07
2022-12-25T08:11:57.186Z,91.56
2022-12-25T08:13:33.674Z,92.34
2022-12-25T08:15:06.910Z,91.16
2022-12-25T08:16:42.208Z,92.06
2022-12-25T08:18:15.980Z,92.07
2022-12-25T08:19:48.940Z,90.45
2022-12-25T08:21:22.036Z,90.47
2022-12-25T08:22:55.152Z,90.33
2022-12-25T08:24:27.704Z,91.24
2022-12-25T08:26:05.157Z,91.05
2022-12-25T08:27:38.985Z,91.17
2022-12-25T08:29:12.138Z,91.09
2022-12-25T08:30:45.307Z,91.25
2022-12-25T08:32:18.495Z,90.45
2022-12-25T08:33:52.614Z,90.21
2022-12-25T08:35:26.829Z,91.39
2022-12-25T08:36:59.877Z,91.84
2022-12-25T08:38:33.268Z,90.83
2022-12-25T08:40:06.633Z,92.06
2022-12-25T08:41:40.727Z,90.44
2022-12-25T08:43:13.480Z,90.98
2022-12-25T08:44:46.458Z,90.17
2022-12-25T08:46:19.669Z,90.17
2022-12-25T08:47:56.151Z,91.20
2022-12-25T08:49:29.537Z,89.84
2022-12-25T08:51:02.804Z,91.05
2022-12-25T08:52:35.587Z,91.20
2022-12-25T08:54:09.403Z,91.62
2022-12-25T08:55:42.524Z,92.64
2022-12-25T08:57:15.734Z,90.96
2022-12-25T08:58:48.604Z,91.67
2022-12-25T09:00:21.454Z,91.09
2022-12-25T09:01:54.459Z,91.08
2022-12-25T09:03:28.104Z,92.37
2022-12-25T09:05:01.058Z,90.95
2022-12-25T09:06:33.964Z,90.75
2022-12-25T09:08:07.064Z,92.39
2022-12-25T09:09:40.318Z,91.92
2022-12-25T09:11:14.033Z,91.81
2022-12-25T09:12:47.305Z,91.48
2022-12-25T09:14:19.992Z,91.79
2022-12-25T09:15:52.963Z,91.22
2022-12-25T09:17:25.759Z,90.72
2022-12-25T09:18:58.961Z,91.45
2022-12-25T09:20:31.604Z,91.95
2022-12-25T09:22:05.012Z,91.24
2022-12-25T09:23:38.147Z,90.12
2022-12-25T09:25:10.954Z,89.75
2022-12-25T09:26:43.647Z,90.95
2022-12-25T09:28:17.621Z,90.22
2022-12-25T09:29:50.658Z,90.23
2022-12-25T09:31:23.991Z,89.75
2022-12-25T09:32:56.728Z,89.66
2022-12-25T09:34:29.569Z,88.95
2022-12-25T09:36:03.996Z,89.02
2022-12-25T09:37:37.239Z,89.28
2022-12-25T09:39:09.938Z,89.24
2022-12-25T09:40:42.951Z,89.36
2022-12-25T09:42:26.356Z,89.67
2022-12-25T09:43:59.120Z,90.11
2022-12-25T09:45:37.710Z,89.90
2022-12-25T09:47:25.975Z,90.25
2022-12-25T09:49:17.454Z,91.08
2022-12-25T09:51:13.458Z,91.25
2022-12-25T09:52:49.806Z,90.74
2022-12-25T09:54:32.624Z,91.44
2022-12-25T09:56:14.454Z,92.07
2022-12-25T09:57:50.922Z,91.25
2022-12-25T09:59:25.549Z,91.09
2022-12-25T10:01:15.601Z,91.48
2022-12-25T10:03:07.110Z,91.30
2022-12-25T10:04:49.038Z,91.21
2022-12-25T10:06:25.405Z,91.50
2022-12-25T10:08:07.614Z,91.95
2022-12-25T10:09:53.960Z,92.27
2022-12-25T10:11:27.156Z,92.51
2022-12-25T10:13:19.021Z,93.26
2022-12-25T10:14:54.908Z,93.41
2022-12-25T10:16:27.619Z,94.21
2022-12-25T10:18:26.445Z,93.65
2022-12-25T10:20:14.124Z,93.10
2022-12-25T10:21:48.462Z,93.75
2022-12-25T10:23:33.089Z,94.15
2022-12-25T10:25:07.249Z,93.71
2022-12-25T10:26:40.347Z,95.00
2022-12-25T10:28:14.904Z,94.39
2022-12-25T10:29:51.175Z,94.51
2022-12-25T10:31:26.057Z,93.96
2022-12-25T10:32:59.069Z,94.86
2022-12-25T10:34:32.898Z,94.21
2022-12-25T10:36:07.249Z,95.06
2022-12-25T10:37:41.207Z,95.41
2022-12-25T10:39:18.202Z,95.95
2022-12-25T10:40:56.902Z,96.86
2022-12-25T10:42:43.990Z,96.55
2022-12-25T10:44:20.910Z,95.86
2022-12-25T10:45:53.791Z,96.34
2022-12-25T10:47:28.509Z,96.55
2022-12-25T10:49:02.842Z,95.95
2022-12-25T10:50:42.742Z,95.17
2022-12-25T10:52:25.786Z,95.55
2022-12-25T10:53:58.884Z,95.92
2022-12-25T10:55:32.774Z,95.19
2022-12-25T10:57:19.146Z,95.37
2022-12-25T10:58:52.186Z,96.37
2022-12-25T11:00:32.773Z,96.74
2022-12-25T11:02:14.517Z,97.67
2022-12-25T11:03:52.147Z,96.87
2022-12-25T11:05:29.259Z,97.31
2022-12-25T11:07:05.773Z,97.73
2022-12-25T11:08:39.179Z,98.42
2022-12-25T11:10:21.058Z,97.55
2022-12-25T11:11:53.888Z,98.45
2022-12-25T11:13:28.877Z,98.17
2022-12-25T11:15:03.591Z,99.10
2022-12-25T11:16:38.656Z,99.76
2022-12-25T11:18:18.288Z,100.00
2022-12-25T11:19:58.235Z,100.00
2022-12-25T11:21:32.788Z,100.00
2022-12-25T11:23:10.456Z,100.00
2022-12-25T11:24:43.260Z,100.00
2022-12-25T11:26:17.062Z,100.00
2022-12-25T11:28:03.167Z,100.00
2022-12-25T11:29:49.817Z,100.00
2022-12-25T11:31:48.799Z,100.00
2022-12-25T11:33:23.087Z,100.00
2022-12-25T11:34:56.856Z,100.00
2022-12-25T11:36:33.148Z,100.00
2022-12-25T11:38:05.890Z,100.00
2022-12-25T11:39:40.656Z,100.00
2022-12-25T11:41:14.477Z,100.00
2022-12-25T11:42:55.081Z,100.00
2022-12-25T11:44:34.833Z,100.00
2022-12-25T11:46:07.830Z,100.00
2022-12-25T11:47:43.842Z,100.00
2022-12-25T11:49:19.133Z,100.00
2022-12-25T11:50:57.757Z,100.00
2022-12-25T11:52:34.482Z,100.00
2022-12-25T11:54:18.835Z,100.00
2022-12-25T11:55:55.085Z,100.00
2022-12-25T11:57:29.496Z,100.00
2022-12-25T11:59:07.673Z,100.00
2022-12-25T12:00:42.010Z,100.00
2022-12-25T12:02:17.799Z,100.00
2022-12-25T12:03:50.571Z,100.00
2022-12-25T12:05:26.378Z,100.00
2022-12-25T12:07:07.085Z,100.00
2022-12-25T12:08:40.288Z,100.00
2022-12-25T12:10:20.354Z,100.00
2022-12-25T12:11:58.533Z,100.00
2022-12-25T12:13:37.501Z,100.00
2022-12-25T12:15:16.796Z,100.00
2022-12-25T12:16:49.910Z,100.00
2022-12-25T12:18:23.115Z,100.00
2022-12-25T12:19:58.016Z,100.00
2022-12-25T12:21:31.564Z,100.00
2022-12-25T12:23:12.065Z,100.00
2022-12-25T12:24:45.416Z,100.00
2022-12-25T12:26:22.324Z,100.00
2022-12-25T12:28:02.835Z,100.00
2022-12-25T12:29:43.921Z,100.00
2022-12-25T12:31:16.990Z,100.00
2022-12-25T12:32:51.671Z,100.00
2022-12-25T12:34:38.917Z,100.00
2022-12-25T12:36:14.077Z,100.00
2022-12-25T12:37:50.205Z,100.00
2022-12-25T12:39:25.579Z,100.00
2022-12-25T12:41:00.436Z,100.00
2022-12-25T12:42:36.390Z,100.00
2022-12-25T12:44:12.361Z,100.00
2022-12-25T12:45:54.854Z,100.00
2022-12-25T12:47:37.450Z,100.00
2022-12-25T12:49:10.372Z,100.00
2022-12-25T12:50:43.451Z,100.00
2022-12-25T12:52:30.631Z,100.00
2022-12-25T12:54:21.625Z,100.00
2022-12-25T12:55:54.813Z,100.00
2022-12-25T12:57:30.106Z,100.00
2022-12-25T12:59:02.721Z,100.00
2022-12-25T13:00:46.826Z,100.00
2022-12-25T13:02:38.217Z,100.00
2022-12-25T13:04:30.479Z,100.00
2022-12-25T13:06:12.220Z,100.00
2022-12-25T13:08:06.778Z,100.00
2022-12-25T13:09:39.773Z,100.00
2022-12-25T13:11:26.826Z,100.00
2022-12-25T13:13:05.576Z,100.00
2022-12-25T13:14:38.700Z,100.00
2022-12-25T13:16:18.818Z,100.00
2022-12-25T13:17:51.864Z,100.00
2022-12-25T13:19:26.317Z,100.00
2022-12-25T13:21:01.655Z,100.00
2022-12-25T13:22:36.136Z,100.00
2022-12-25T13:24:21.028Z,100.00
2022-12-25T13:25:58.055Z,100.00
2022-12-25T13:27:32.014Z,100.00
2022-12-25T13:29:11.054Z,100.00
2022-12-25T13:30:44.310Z,100.00
2022-12-25T13:32:22.760Z,100.00
2022-12-25T13:34:01.502Z,100.00
2022-12-25T13:35:34.239Z,100.00
2022-12-25T13:37:17.933Z,100.00
2022-12-25T13:38:51.931Z,100.00
2022-12-25T13:40:28.412Z,100.00
2022-12-25T13:42:06.921Z,100.00
2022-12-25T13:43:40.598Z,100.00
2022-12-25T13:45:13.175Z,100.00
2022-12-25T13:46:46.198Z,100.00
2022-12-25T13:48:21.416Z,100.00
2022-12-25T13:49:56.128Z,100.00
2022-12-25T13:51:29.128Z,100.00
2022-12-25T13:53:12.651Z,100.00
2022-12-25T13:54:55.984Z,100.00
2022-12-25T13:56:28.960Z,100.00
2022-12-25T13:58:03.510Z,100.00
2022-12-25T13:59:38.103Z,100.00
2022-12-25T14:01:12.834Z,100.00
2022-12-25T14:02:45.998Z,100.00
2022-12-25T14:04:23.420Z,100.00
2022-12-25T14:06:00.952Z,100.00
2022-12-25T14:07:35.030Z,100.00
2022-12-25T14:09:07.894Z,100.00
2022-12-25T14:10:41.318Z,100.00
2022-12-25T14:12:19.242Z,100.00
2022-12-25T14:13:54.599Z,100.00
2022-12-25T14:15:28.888Z,100.00
2022-12-25T14:17:01.743Z,100.00
2022-12-25T14:18:34.841Z,100.00
2022-12-25T14:20:08.789Z,100.00
2022-12-25T14:21:49.459Z,100.00
2022-12-25T14:23:22.254Z,100.00
2022-12-25T14:24:55.345Z,100.00
2022-12-25T14:26:29.973Z,100.00
2022-12-25T14:28:06.571Z,100.00
2022-12-25T14:29:42.256Z,100.00
2022-12-25T14:31:15.245Z,100.00
2022-12-25T14:32:53.115Z,100.00
2022-12-25T14:34:33.675Z,100.00
2022-12-25T14:36:07.379Z,100.00
2022-12-25T14:37:41.763Z,100.00
2022-12-25T14:39:25.500Z,100.00
2022-12-25T14:41:33.873Z,100.00
2022-12-25T14:43:20.481Z,100.00
2022-12-25T14:44:58.923Z,100.00
2022-12-25T14:46:32.709Z,100.00
2022-12-25T14:48:22.931Z,100.00
2022-12-25T14:49:57.691Z,100.00
2022-12-25T14:51:31.364Z,100.00
2022-12-25T14:53:04.025Z,100.00
2022-12-25T14:54:37.441Z,100.00
2022-12-25T14:56:13.085Z,100.00
2022-12-25T14:57:49.416Z,100.00
2022-12-25T14:59:25.564Z,100.00
2022-12-25T15:00:59.763Z,100.00
2022-12-25T15:02:40.276Z,100.00
2022-12-25T15:04:13.089Z,100.00
2022-12-25T15:05:45.778Z,100.00
2022-12-25T15:07:29.217Z,100.00
2022-12-25T15:09:07.139Z,100.00
2022-12-25T15:12:33.838Z,100.00
2022-12-25T15:14:06.734Z,100.00
2022-12-25T15:15:42.192Z,100.00
2022-12-25T15:17:25.390Z,100.00
2022-12-25T15:19:00.684Z,100.00
2022-12-25T15:20:34.620Z,100.00
2022-12-25T15:22:07.566Z,100.00
2022-12-25T15:23:40.316Z,100.00
2022-12-25T15:25:15.064Z,100.00
2022-12-25T15:26:47.859Z,100.00
2022-12-25T15:28:20.664Z,100.00
2022-12-25T15:30:09.835Z,100.00
2022-12-25T15:31:43.013Z,100.00
2022-12-25T15:33:17.111Z,100.00
2022-12-25T15:34:50.441Z,100.00
2022-12-25T15:36:23.625Z,100.00
2022-12-25T15:37:56.467Z,100.00
2022-12-25T15:39:29.177Z,100.00
2022-12-25T15:41:02.025Z,100.00
2022-12-25T15:42:34.803Z,100.00
2022-12-25T15:44:07.926Z,100.00
2022-12-25T15:45:40.631Z,100.00
2022-12-25T15:47:14.418Z,100.00
2022-12-25T15:48:47.394Z,100.00
2022-12-25T15:50:22.010Z,100.00
2022-12-25T15:51:54.773Z,100.00
2022-12-25T15:53:27.613Z,100.00
2022-12-25T15:55:00.545Z,100.00
2022-12-25T15:56:49.433Z,100.00
2022-12-25T15:58:22.411Z,100.00
2022-12-25T15:59:55.489Z,100.00
2022-12-25T16:01:28.641Z,100.00
2022-12-25T16:03:01.912Z,100.00
2022-12-25T16:04:34.715Z,100.00
2022-12-25T16:06:09.547Z,100.00
2022-12-25T16:07:42.379Z,100.00
2022-12-25T16:09:15.904Z,100.00
2022-12-25T16:10:49.025Z,100.00
2022-12-25T16:12:22.615Z,100.00
2022-12-25T16:13:55.691Z,100.00
2022-12-25T16:15:28.383Z,100.00
2022-12-25T16:17:01.139Z,100.00
2022-12-25T16:18:35.064Z,100.00
2022-12-25T16:20:08.288Z,100.00
2022-12-25T16:21:43.337Z,100.00
2022-12-25T16:23:17.092Z,100.00
2022-12-25T16:24:50.608Z,100.00
2022-12-25T16:26:23.372Z,100.00
2022-12-25T16:27:56.231Z,100.00
2022-12-25T16:29:29.312Z,100.00
2022-12-25T16:31:02.228Z,100.00
2022-12-25T16:32:35.547Z,100.00
2022-12-25T16:34:08.876Z,100.00
2022-12-25T16:35:41.746Z,100.00
2022-12-25T16:37:14.744Z,100.00
2022-12-25T16:38:47.455Z,100.00
2022-12-25T16:40:20.141Z,100.00
2022-12-25T16:41:52.949Z,100.00
2022-12-25T16:43:26.081Z,100.00
2022-12-25T16:44:58.911Z,100.00
2022-12-25T16:46:31.479Z,100.00
2022-12-25T16:48:04.352Z,100.00
2022-12-25T16:49:37.344Z,100.00
2022-12-25T16:51:17.763Z,100.00
2022-12-25T16:52:51.658Z,100.00
2022-12-25T16:54:24.531Z,100.00
2022-12-25T16:56:05.453Z,100.00
2022-12-25T16:57:38.250Z,100.00
2022-12-25T16:59:11.099Z,100.00
2022-12-25T17:00:49.094Z,100.00
2022-12-25T17:02:22.607Z,100.00
2022-12-25T17:03:55.933Z,100.00
2022-12-25T17:05:29.026Z,100.00
2022-12-25T17:07:02.404Z,100.00
2022-12-25T17:08:35.221Z,100.00
2022-12-25T17:10:08.384Z,100.00
2022-12-25T17:11:41.145Z,100.00
2022-12-25T17:13:13.879Z,100.00
2022-12-25T17:14:46.640Z,100.00
2022-12-25T17:16:20.752Z,100.00
2022-12-25T17:17:53.885Z,100.00
2022-12-25T17:19:26.715Z,100.00
2022-12-25T17:20:59.350Z,100.00
2022-12-25T17:22:32.034Z,100.00
2022-12-25T17:24:05.135Z,100.00
2022-12-25T17:25:38.246Z,100.00
2022-12-25T17:27:11.758Z,100.00
2022-12-25T17:28:44.968Z,100.00
2022-12-25T17:30:18.183Z,100.00
2022-12-25T17:31:51.728Z,100.00
2022-12-25T17:33:24.814Z,100.00
2022-12-25T17:34:57.911Z,100.00
2022-12-25T17:36:31.229Z,100.00
2022-12-25T17:38:04.255Z,100.00
2022-12-25T17:39:37.076Z,100.00
2022-12-25T17:41:12.262Z,100.00
2022-12-25T17:42:44.953Z,100.00
2022-12-25T17:44:18.184Z,100.00
2022-12-25T17:45:50.916Z,100.00
2022-12-25T17:47:23.696Z,100.00
2022-12-25T17:48:57.440Z,100.00
2022-12-25T17:50:31.830Z,100.00
2022-12-25T17:52:07.688Z,100.00
2022-12-25T17:53:41.888Z,100.00
2022-12-25T17:55:14.660Z,100.00
2022-12-25T17:56:50.287Z,100.00
2022-12-25T17:58:23.260Z,100.00
2022-12-25T17:59:56.426Z,100.00
2022-12-25T18:01:29.881Z,100.00
2022-12-25T18:03:10.572Z,100.00
2022-12-25T18:04:44.310Z,100.00
2022-12-25T18:06:18.406Z,100.00
2022-12-25T18:07:50.991Z,100.00
2022-12-25T18:09:23.692Z,100.00
2022-12-25T18:11:00.031Z,100.00
2022-12-25T18:12:33.410Z,100.00
2022-12-25T18:14:06.794Z,100.00
2022-12-25T18:15:40.185Z,100.00
2022-12-25T18:17:13.487Z,100.00
2022-12-25T18:18:51.876Z,100.00
2022-12-25T18:20:25.045Z,100.00
2022-12-25T18:21:57.893Z,100.00
2022-12-25T18:23:31.013Z,100.00
2022-12-25T18:25:03.736Z,100.00
2022-12-25T18:26:36.863Z,100.00
2022-12-25T18:28:09.985Z,100.00
2022-12-25T18:29:42.829Z,100.00
2022-12-25T18:31:17.175Z,100.00
2022-12-25T18:32:49.774Z,100.00
2022-12-25T18:34:23.620Z,100.00
2022-12-25T18:35:58.175Z,100.00
2022-12-25T18:37:35.915Z,100.00
2022-12-25T18:39:13.542Z,100.00
2022-12-25T18:40:47.789Z,100.00
2022-12-25T18:42:39.365Z,100.00
2022-12-25T18:44:12.626Z,100.00
2022-12-25T18:45:46.092Z,100.00
2022-12-25T18:47:18.837Z,100.00
2022-12-25T18:48:51.640Z,100.00
2022-12-25T18:50:24.446Z,100.00
2022-12-25T18:52:49.507Z,100.00
2022-12-25T18:53:55.243Z,100.00
2022-12-25T18:55:28.069Z,100.00
2022-12-25T18:57:07.355Z,100.00
2022-12-25T18:58:41.827Z,100.00
2022-12-25T19:00:15.092Z,100.00
2022-12-25T19:01:48.292Z,100.00
2022-12-25T19:03:21.449Z,100.00
2022-12-25T19:04:54.431Z,100.00
2022-12-25T19:06:28.381Z,100.00
2022-12-25T19:08:01.278Z,100.00
2022-12-25T19:09:34.245Z,100.00
2022-12-25T19:11:08.136Z,100.00
2022-12-25T19:12:40.997Z,100.00
2022-12-25T19:14:13.673Z,100.00
2022-12-25T19:15:46.405Z,100.00
2022-12-25T19:17:19.552Z,100.00
2022-12-25T19:18:54.004Z,100.00
2022-12-25T19:20:26.860Z,100.00
2022-12-25T19:21:59.603Z,100.00
2022-12-25T19:23:32.500Z,100.00
2022-12-25T19:25:05.757Z,100.00
2022-12-25T19:26:38.924Z,100.00
2022-12-25T19:28:11.475Z,100.00
2022-12-25T19:29:44.194Z,100.00
2022-12-25T19:31:17.245Z,100.00
2022-12-25T19:32:50.383Z,100.00
2022-12-25T19:34:23.177Z,100.00
2022-12-25T19:35:59.626Z,100.00
2022-12-25T19:37:32.637Z,100.00
2022-12-25T19:39:06.013Z,100.00
2022-12-25T19:40:38.974Z,100.00
2022-12-25T19:42:14.339Z,100.00
2022-12-25T19:43:48.000Z,100.00
2022-12-25T19:45:21.856Z,100.00
2022-12-25T19:46:54.553Z,100.00
2022-12-25T19:48:27.368Z,100.00
2022-12-25T19:50:02.903Z,100.00
2022-12-25T19:51:46.453Z,100.00
2022-12-25T19:53:21.707Z,100.00
2022-12-25T19:54:54.393Z,100.00
2022-12-25T19:56:28.541Z,100.00
2022-12-25T19:58:01.621Z,100.00
2022-12-25T19:59:34.354Z,100.00
2022-12-25T20:01:09.877Z,100.00
2022-12-25T20:02:42.991Z,100.00
2022-12-25T20:04:18.377Z,100.00
2022-12-25T20:05:52.183Z,100.00
2022-12-25T20:07:25.586Z,100.00
2022-12-25T20:09:01.203Z,100.00
2022-12-25T20:10:33.954Z,100.00
2022-12-25T20:12:08.657Z,100.00
2022-12-25T20:13:41.327Z,100.00
2022-12-25T20:15:14.067Z,100.00
2022-12-25T20:16:46.950Z,100.00